createdAt,value
2018-12-06T00:03:17.202Z,7.27
2018-12-06T00:07:21.218Z,7.34
2018-12-06T00:11:28.044Z,7.29
2018-12-06T00:15:32.114Z,7.32
2018-12-06T00:19:38.234Z,7.37
2018-12-06T00:23:42.220Z,7.35
2018-12-06T00:27:46.212Z,7.27
2018-12-06T00:31:50.291Z,7.31
2018-12-06T00:35:54.443Z,7.37
2018-12-06T00:39:59.569Z,7.46
2018-12-06T00:44:03.584Z,7.44
2018-12-06T00:48:07.662Z,7.42
2018-12-06T00:52:11.716Z,7.55
2018-12-06T00:56:15.757Z,7.65
2018-12-06T01:00:19.846Z,7.72
2018-12-06T01:04:23.883Z,7.83
2018-12-06T01:08:27.804Z,7.77
2018-12-06T01:12:31.819Z,7.81
2018-12-06T01:16:36.428Z,7.92
2018-12-06T01:20:40.371Z,7.85
2018-12-06T01:24:44.404Z,7.88
2018-12-06T01:28:48.386Z,7.91
2018-12-06T01:32:52.452Z,7.90
2018-12-06T01:36:56.487Z,7.98
2018-12-06T01:41:00.596Z,8.03
2018-12-06T01:45:05.319Z,8.29
2018-12-06T01:49:09.399Z,8.31
2018-12-06T01:53:13.399Z,8.38
2018-12-06T01:57:17.367Z,8.37
2018-12-06T02:01:21.407Z,8.43
2018-12-06T02:05:25.451Z,8.46
2018-12-06T02:09:29.491Z,8.48
2018-12-06T02:13:33.479Z,8.46
2018-12-06T02:17:37.520Z,8.60
2018-12-06T02:21:41.650Z,8.51
2018-12-06T02:25:45.657Z,8.56
2018-12-06T02:29:54.655Z,8.58
2018-12-06T02:33:58.704Z,8.68
2018-12-06T02:38:02.822Z,8.65
2018-12-06T02:42:06.868Z,8.60
2018-12-06T02:46:10.914Z,8.74
2018-12-06T02:50:15.011Z,8.73
2018-12-06T02:54:18.975Z,8.79
2018-12-06T02:58:22.963Z,8.92
2018-12-06T03:02:28.013Z,8.85
2018-12-06T03:06:32.028Z,8.95
2018-12-06T03:10:36.049Z,9.04
2018-12-06T03:14:40.452Z,9.03
2018-12-06T03:18:46.569Z,9.08
2018-12-06T03:22:50.576Z,9.12
2018-12-06T03:26:54.664Z,9.14
2018-12-06T03:30:59.016Z,9.28
2018-12-06T03:35:03.135Z,9.30
2018-12-06T03:39:08.205Z,9.27
2018-12-06T03:43:12.511Z,9.38
2018-12-06T03:47:16.551Z,9.39
2018-12-06T03:51:20.553Z,9.44
2018-12-06T03:55:24.488Z,9.55
2018-12-06T03:59:28.507Z,9.63
2018-12-06T04:03:32.525Z,9.65
2018-12-06T04:07:37.407Z,9.73
2018-12-06T04:11:41.391Z,9.72
2018-12-06T04:15:45.301Z,9.73
2018-12-06T04:19:49.433Z,9.81
2018-12-06T04:23:53.591Z,9.88
2018-12-06T04:27:57.610Z,9.92
2018-12-06T04:32:01.616Z,9.99
2018-12-06T04:36:05.538Z,9.90
2018-12-06T04:40:09.561Z,9.89
2018-12-06T04:44:13.583Z,9.77
2018-12-06T04:48:21.956Z,9.73
2018-12-06T04:52:23.550Z,9.70
2018-12-06T04:56:27.574Z,9.66
2018-12-06T05:00:31.498Z,9.65
2018-12-06T05:04:35.630Z,9.72
2018-12-06T05:08:39.696Z,9.75
2018-12-06T05:12:43.892Z,9.78
2018-12-06T05:16:47.913Z,9.74
2018-12-06T05:20:52.022Z,9.74
2018-12-06T05:24:56.179Z,9.68
2018-12-06T05:29:01.282Z,9.66
2018-12-06T05:33:05.371Z,9.64
2018-12-06T05:37:09.387Z,9.56
2018-12-06T05:41:13.369Z,9.57
2018-12-06T05:45:17.376Z,9.57
2018-12-06T05:49:21.350Z,9.54
2018-12-06T05:53:25.363Z,9.53
2018-12-06T05:57:29.333Z,9.55
2018-12-06T06:01:33.288Z,9.56
2018-12-06T06:05:37.443Z,9.59
2018-12-06T06:09:41.425Z,9.61
2018-12-06T06:14:48.746Z,9.66
2018-12-06T06:18:52.707Z,9.68
2018-12-06T06:22:56.796Z,9.72
2018-12-06T06:27:00.864Z,9.77
2018-12-06T06:31:04.887Z,9.79
2018-12-06T06:35:08.919Z,9.85
2018-12-06T06:39:13.030Z,9.86
2018-12-06T06:43:17.048Z,9.85
2018-12-06T06:47:21.025Z,9.90
2018-12-06T06:51:25.076Z,9.96
2018-12-06T06:55:29.084Z,9.95
2018-12-06T06:59:33.136Z,9.98
2018-12-06T07:03:37.121Z,10.07
2018-12-06T07:07:41.167Z,10.03
2018-12-06T07:11:45.240Z,10.04
2018-12-06T07:15:49.194Z,10.08
2018-12-06T07:19:53.212Z,10.11
2018-12-06T07:23:57.247Z,10.21
2018-12-06T07:28:01.259Z,10.27
2018-12-06T07:32:05.520Z,10.29
2018-12-06T07:36:09.598Z,10.30
2018-12-06T07:40:13.673Z,10.34
2018-12-06T07:44:17.802Z,10.35
2018-12-06T07:48:21.828Z,10.39
2018-12-06T07:52:25.808Z,10.43
2018-12-06T07:56:29.889Z,10.50
2018-12-06T08:00:33.915Z,10.60
2018-12-06T08:04:37.866Z,10.58
2018-12-06T08:08:41.961Z,10.63
2018-12-06T08:12:45.976Z,10.68
2018-12-06T08:16:50.075Z,10.75
2018-12-06T08:20:54.223Z,10.80
2018-12-06T08:24:58.200Z,10.83
2018-12-06T08:29:03.220Z,10.82
2018-12-06T08:33:07.258Z,10.91
2018-12-06T08:37:11.311Z,10.93
2018-12-06T08:41:15.440Z,10.96
2018-12-06T08:45:19.500Z,11.09
2018-12-06T08:49:23.637Z,11.07
2018-12-06T08:53:27.599Z,11.14
2018-12-06T08:57:31.601Z,11.16
2018-12-06T09:01:35.563Z,11.15
2018-12-06T09:05:39.523Z,11.25
2018-12-06T09:09:43.491Z,11.26
2018-12-06T09:13:47.581Z,11.26
2018-12-06T09:17:51.592Z,11.25
2018-12-06T09:21:55.619Z,11.24
2018-12-06T09:25:59.640Z,11.25
2018-12-06T09:30:04.033Z,11.25
2018-12-06T09:34:08.328Z,11.23
2018-12-06T09:38:12.401Z,11.25
2018-12-06T09:42:16.744Z,11.24
2018-12-06T09:46:20.991Z,11.24
2018-12-06T09:50:25.137Z,11.26
2018-12-06T09:54:29.152Z,11.29
2018-12-06T09:58:33.167Z,11.25
2018-12-06T10:02:37.116Z,11.34
2018-12-06T10:06:41.125Z,11.35
2018-12-06T10:10:45.095Z,11.38
2018-12-06T10:14:49.071Z,11.39
2018-12-06T10:18:53.040Z,11.31
2018-12-06T10:22:57.087Z,11.30
2018-12-06T10:27:01.143Z,11.18
2018-12-06T10:31:05.408Z,11.11
2018-12-06T10:35:09.581Z,11.10
2018-12-06T10:39:13.573Z,11.15
2018-12-06T10:43:17.644Z,11.21
2018-12-06T10:47:21.691Z,11.30
2018-12-06T10:51:37.144Z,11.44
2018-12-06T10:55:41.137Z,11.53
2018-12-06T10:59:45.182Z,11.59
2018-12-06T11:04:04.637Z,11.59
2018-12-06T11:08:08.599Z,11.60
2018-12-06T11:12:12.579Z,11.56
2018-12-06T11:16:16.640Z,11.53
2018-12-06T11:20:20.793Z,11.50
2018-12-06T11:24:24.982Z,11.49
2018-12-06T11:28:28.941Z,11.44
2018-12-06T11:32:32.925Z,11.42
2018-12-06T11:36:37.009Z,11.48
2018-12-06T11:40:41.068Z,11.49
2018-12-06T11:44:45.110Z,11.56
2018-12-06T11:48:49.106Z,11.67
2018-12-06T11:52:53.181Z,11.68
2018-12-06T11:56:57.200Z,11.78
2018-12-06T12:01:01.236Z,11.77
2018-12-06T12:05:06.493Z,11.81
2018-12-06T12:09:10.716Z,11.83
2018-12-06T12:13:14.903Z,11.86
2018-12-06T12:17:20.902Z,11.90
2018-12-06T12:21:24.870Z,11.98
2018-12-06T12:25:29.895Z,12.11
2018-12-06T12:29:33.964Z,12.16
2018-12-06T12:33:37.972Z,12.22
2018-12-06T12:37:41.987Z,12.20
2018-12-06T12:41:46.084Z,12.28
2018-12-06T12:45:50.151Z,12.35
2018-12-06T12:49:54.185Z,12.57
2018-12-06T12:53:58.304Z,12.50
2018-12-06T12:58:02.271Z,12.34
2018-12-06T13:02:06.369Z,12.36
2018-12-06T13:06:10.351Z,12.30
2018-12-06T13:10:14.331Z,12.26
2018-12-06T13:14:18.392Z,12.34
2018-12-06T13:18:22.527Z,12.25
2018-12-06T13:22:26.845Z,12.24
2018-12-06T13:26:30.890Z,12.26
2018-12-06T13:30:35.038Z,12.24
2018-12-06T13:34:39.019Z,12.26
2018-12-06T13:38:43.127Z,12.30
2018-12-06T13:42:47.176Z,12.27
2018-12-06T13:46:51.161Z,12.28
2018-12-06T13:50:55.300Z,12.24
2018-12-06T13:54:59.340Z,12.24
2018-12-06T13:59:03.412Z,12.19
2018-12-06T14:03:07.057Z,12.24
2018-12-06T14:07:11.095Z,12.21
2018-12-06T14:11:15.164Z,12.18
2018-12-06T14:15:20.208Z,12.18
2018-12-06T14:19:24.249Z,12.19
2018-12-06T14:23:28.307Z,12.21
2018-12-06T14:27:32.287Z,12.18
2018-12-06T14:31:36.241Z,12.19
2018-12-06T14:35:40.203Z,12.15
2018-12-06T14:39:44.498Z,12.15
2018-12-06T14:43:49.250Z,12.14
2018-12-06T14:47:53.276Z,12.10
2018-12-06T14:51:57.310Z,12.11
2018-12-06T14:56:01.324Z,12.12
2018-12-06T15:00:06.965Z,12.06
2018-12-06T15:04:11.033Z,12.10
2018-12-06T15:08:15.007Z,12.10
2018-12-06T15:12:19.032Z,12.09
2018-12-06T15:16:24.113Z,12.05
2018-12-06T15:20:28.044Z,12.03
2018-12-06T15:24:31.977Z,12.02
2018-12-06T15:33:20.812Z,11.96
2018-12-06T15:37:24.767Z,12.08
2018-12-06T15:41:28.944Z,12.00
2018-12-06T15:45:33.062Z,12.02
2018-12-06T15:49:38.087Z,12.12
2018-12-06T15:53:42.240Z,12.07
2018-12-06T15:57:46.199Z,12.08
2018-12-06T16:01:50.204Z,12.01
2018-12-06T16:05:54.184Z,12.04
2018-12-06T16:09:58.200Z,12.07
2018-12-06T16:14:02.280Z,12.06
2018-12-06T16:18:06.233Z,12.03
2018-12-06T16:22:10.265Z,12.11
2018-12-06T16:26:14.340Z,12.07
2018-12-06T16:30:18.492Z,12.12
2018-12-06T16:39:30.063Z,12.11
2018-12-06T16:43:34.079Z,12.15
2018-12-06T16:47:38.071Z,12.19
2018-12-06T16:51:42.241Z,12.16
2018-12-06T16:55:47.240Z,12.17
2018-12-06T16:59:51.457Z,12.17
2018-12-06T17:03:55.460Z,12.19
2018-12-06T17:07:59.525Z,12.17
2018-12-06T17:12:07.450Z,12.15
2018-12-06T17:16:11.435Z,12.15
2018-12-06T17:20:15.439Z,12.12
2018-12-06T17:24:19.481Z,12.11
2018-12-06T17:28:23.680Z,12.10
2018-12-06T17:37:40.784Z,12.14
2018-12-06T17:41:44.855Z,12.19
2018-12-06T17:45:51.039Z,12.24
2018-12-06T17:49:55.098Z,12.18
2018-12-06T17:54:00.425Z,12.18
2018-12-06T17:58:04.875Z,12.23
2018-12-06T18:02:09.294Z,12.19
2018-12-06T18:06:13.416Z,12.25
2018-12-06T18:10:18.146Z,12.25
2018-12-06T18:14:22.172Z,12.25
2018-12-06T18:18:26.231Z,12.24
2018-12-06T18:22:30.600Z,12.24
2018-12-06T18:26:36.002Z,12.28
2018-12-06T18:30:40.101Z,12.23
2018-12-06T18:34:52.824Z,12.18
2018-12-06T18:38:57.613Z,11.98
2018-12-06T18:43:01.678Z,11.95
2018-12-06T18:47:07.498Z,12.12
2018-12-06T18:51:11.704Z,12.11
2018-12-06T18:55:15.686Z,12.14
2018-12-06T19:04:09.772Z,12.19
2018-12-06T19:08:13.797Z,12.19
2018-12-06T19:13:21.553Z,12.29
2018-12-06T19:17:25.621Z,12.24
2018-12-06T19:21:29.866Z,12.24
2018-12-06T19:25:34.051Z,12.21
2018-12-06T19:29:38.116Z,12.27
2018-12-06T19:33:42.364Z,12.23
2018-12-06T19:39:10.926Z,12.22
2018-12-06T19:43:15.103Z,12.22
2018-12-06T19:47:19.173Z,12.27
2018-12-06T19:51:23.268Z,12.28
2018-12-06T19:55:27.335Z,12.26
2018-12-06T19:59:31.308Z,12.27
2018-12-06T20:03:35.448Z,12.26
2018-12-06T20:07:39.572Z,12.29
2018-12-06T20:11:43.681Z,12.31
2018-12-06T20:15:47.782Z,12.26
2018-12-06T20:19:51.899Z,12.18
2018-12-06T20:23:55.948Z,12.18
2018-12-06T20:28:00.026Z,12.19
2018-12-06T20:32:04.803Z,12.18
2018-12-06T20:36:08.833Z,12.20
2018-12-06T20:40:12.952Z,12.21
2018-12-06T20:44:16.983Z,12.25
2018-12-06T20:48:21.015Z,12.23
2018-12-06T20:52:25.056Z,12.18
2018-12-06T20:56:30.167Z,12.21
2018-12-06T21:00:34.200Z,12.20
2018-12-06T21:04:38.311Z,12.20
2018-12-06T21:08:42.333Z,12.23
2018-12-06T21:12:46.369Z,12.22
2018-12-06T21:16:50.450Z,12.24
2018-12-06T21:20:54.612Z,12.23
2018-12-06T21:24:58.644Z,12.23
2018-12-06T21:29:02.658Z,12.18
2018-12-06T21:33:06.880Z,12.19
2018-12-06T21:37:10.860Z,12.18
2018-12-06T21:41:14.972Z,12.15
2018-12-06T21:45:19.165Z,12.19
2018-12-06T21:49:23.213Z,12.17
2018-12-06T21:53:27.310Z,12.14
2018-12-06T21:57:31.327Z,11.98
2018-12-06T22:01:35.632Z,11.86
2018-12-06T22:05:39.582Z,11.67
2018-12-06T22:09:44.192Z,11.51
2018-12-06T22:13:49.252Z,11.43
2018-12-06T22:17:53.960Z,11.35
2018-12-06T22:21:58.244Z,11.33
2018-12-06T22:26:02.227Z,11.33
2018-12-06T22:30:06.763Z,11.35
2018-12-06T22:34:10.863Z,11.32
2018-12-06T22:38:15.020Z,11.35
2018-12-06T22:42:19.020Z,11.35
2018-12-06T22:46:23.292Z,11.40
2018-12-06T22:50:27.412Z,11.44
2018-12-06T22:54:33.111Z,11.51
2018-12-06T22:58:37.287Z,11.51
2018-12-06T23:02:42.152Z,11.57
2018-12-06T23:06:46.139Z,11.46
2018-12-06T23:10:50.781Z,11.47
2018-12-06T23:14:54.863Z,11.47
2018-12-06T23:18:59.060Z,11.44
2018-12-06T23:23:03.100Z,11.44
2018-12-06T23:27:07.168Z,11.51
2018-12-06T23:31:11.251Z,11.56
2018-12-06T23:35:15.306Z,11.57
2018-12-06T23:39:19.363Z,11.59
2018-12-06T23:43:23.504Z,11.63
2018-12-06T23:47:28.546Z,11.65
2018-12-06T23:51:38.838Z,11.69
2018-12-06T23:55:42.944Z,11.79
2018-12-06T23:59:46.888Z,11.73
